createdAt,value
2023-02-24T00:01:51.468Z,7.20
2023-02-24T00:04:20.826Z,7.20
2023-02-24T00:06:48.393Z,7.20
2023-02-24T00:09:20.924Z,7.24
2023-02-24T00:11:57.283Z,7.16
2023-02-24T00:14:26.903Z,7.19
2023-02-24T00:16:54.375Z,7.09
2023-02-24T00:19:24.205Z,7.07
2023-02-24T00:21:54.325Z,7.07
2023-02-24T00:24:24.097Z,7.08
2023-02-24T00:26:55.608Z,7.07
2023-02-24T00:29:24.395Z,7.09
2023-02-24T00:32:00.194Z,7.06
2023-02-24T00:34:28.668Z,7.07
2023-02-24T00:36:57.365Z,7.02
2023-02-24T00:39:35.850Z,7.00
2023-02-24T00:42:05.669Z,6.99
2023-02-24T00:44:40.099Z,7.03
2023-02-24T00:47:08.989Z,7.01
2023-02-24T00:49:42.599Z,7.08
2023-02-24T00:52:15.956Z,6.99
2023-02-24T00:54:44.259Z,6.93
2023-02-24T00:57:11.952Z,6.89
2023-02-24T00:59:39.155Z,6.92
2023-02-24T01:02:07.456Z,6.89
2023-02-24T01:04:34.332Z,6.89
2023-02-24T01:07:01.839Z,6.83
2023-02-24T01:09:32.084Z,6.84
2023-02-24T01:12:22.459Z,6.75
2023-02-24T01:14:51.333Z,6.74
2023-02-24T01:17:19.404Z,6.86
2023-02-24T01:19:49.233Z,6.83
2023-02-24T01:22:17.916Z,6.80
2023-02-24T01:24:47.173Z,6.75
2023-02-24T01:27:15.343Z,6.69
2023-02-24T01:29:41.988Z,6.80
2023-02-24T01:32:14.400Z,6.76
2023-02-24T01:34:42.609Z,6.78
2023-02-24T01:37:10.142Z,6.70
2023-02-24T01:39:37.304Z,6.58
2023-02-24T01:42:06.558Z,6.52
2023-02-24T01:44:33.412Z,6.55
2023-02-24T01:47:04.188Z,6.60
2023-02-24T01:49:38.757Z,6.50
2023-02-24T01:52:11.544Z,6.62
2023-02-24T01:54:43.162Z,6.51
2023-02-24T01:57:16.657Z,6.63
2023-02-24T01:59:46.104Z,6.64
2023-02-24T02:02:14.850Z,6.60
2023-02-24T02:04:49.588Z,6.58
2023-02-24T02:07:18.765Z,6.52
2023-02-24T02:09:47.521Z,6.51
2023-02-24T02:12:14.313Z,6.38
2023-02-24T02:14:52.455Z,6.55
2023-02-24T02:17:41.740Z,6.58
2023-02-24T02:20:39.064Z,6.58
2023-02-24T02:23:17.950Z,6.56
2023-02-24T02:26:24.195Z,6.49
2023-02-24T02:29:17.412Z,6.43
2023-02-24T02:32:09.232Z,6.54
2023-02-24T02:34:57.503Z,6.49
2023-02-24T02:37:24.686Z,6.49
2023-02-24T02:39:59.040Z,6.40
2023-02-24T02:42:30.336Z,6.38
2023-02-24T02:45:09.337Z,6.43
2023-02-24T02:47:54.079Z,6.31
2023-02-24T02:50:46.087Z,6.36
2023-02-24T02:53:26.640Z,6.35
2023-02-24T02:55:59.863Z,6.36
2023-02-24T02:58:31.914Z,6.38
2023-02-24T03:01:02.864Z,6.30
2023-02-24T03:03:40.725Z,6.33
2023-02-24T03:06:31.620Z,6.33
2023-02-24T03:09:11.471Z,6.33
2023-02-24T03:11:39.611Z,6.32
2023-02-24T03:14:12.207Z,6.26
2023-02-24T03:16:41.891Z,6.27
2023-02-24T03:19:11.253Z,6.34
2023-02-24T03:21:47.454Z,6.31
2023-02-24T03:24:17.923Z,6.32
2023-02-24T03:27:06.993Z,6.34
2023-02-24T03:29:48.864Z,6.37
2023-02-24T03:32:25.478Z,6.33
2023-02-24T03:35:11.207Z,6.27
2023-02-24T03:37:38.249Z,6.38
2023-02-24T03:40:11.813Z,6.42
2023-02-24T03:42:42.250Z,6.40
2023-02-24T03:45:09.778Z,6.40
2023-02-24T03:47:37.056Z,6.44
2023-02-24T03:50:15.178Z,6.40
2023-02-24T03:52:58.148Z,6.45
2023-02-24T03:55:31.243Z,6.40
2023-02-24T03:58:04.428Z,6.31
2023-02-24T04:00:51.165Z,6.30
2023-02-24T04:04:02.484Z,6.20
2023-02-24T04:06:49.868Z,6.32
2023-02-24T04:09:29.384Z,6.32
2023-02-24T04:12:31.315Z,6.32
2023-02-24T04:15:24.310Z,6.34
2023-02-24T04:18:04.769Z,6.37
2023-02-24T04:20:39.887Z,6.40
2023-02-24T04:23:13.918Z,6.39
2023-02-24T04:25:46.208Z,6.35
2023-02-24T04:28:14.004Z,6.31
2023-02-24T04:30:48.474Z,6.40
2023-02-24T04:33:15.815Z,6.35
2023-02-24T04:35:48.721Z,6.40
2023-02-24T04:38:15.629Z,6.34
2023-02-24T04:40:42.677Z,6.35
2023-02-24T04:43:09.483Z,6.40
2023-02-24T04:45:36.457Z,6.36
2023-02-24T04:48:03.714Z,6.34
2023-02-24T04:50:36.008Z,6.35
2023-02-24T04:53:09.788Z,6.40
2023-02-24T04:55:40.223Z,6.38
2023-02-24T04:58:10.423Z,6.34
2023-02-24T05:00:40.493Z,6.43
2023-02-24T05:03:10.934Z,6.34
2023-02-24T05:05:37.738Z,6.36
2023-02-24T05:08:10.378Z,6.37
2023-02-24T05:10:43.988Z,6.34
2023-02-24T05:13:18.952Z,6.31
2023-02-24T05:15:48.019Z,6.34
2023-02-24T05:18:17.365Z,6.35
2023-02-24T05:21:04.510Z,6.40
2023-02-24T05:23:34.257Z,6.33
2023-02-24T05:26:03.492Z,6.32
2023-02-24T05:28:32.013Z,6.39
2023-02-24T05:31:10.655Z,6.41
2023-02-24T05:33:39.089Z,6.37
2023-02-24T05:36:09.518Z,6.32
2023-02-24T05:38:38.414Z,6.34
2023-02-24T05:41:17.213Z,6.23
2023-02-24T05:43:48.693Z,6.31
2023-02-24T05:46:16.396Z,6.33
2023-02-24T05:48:44.051Z,6.22
2023-02-24T05:51:12.641Z,6.29
2023-02-24T05:53:42.861Z,6.21
2023-02-24T05:56:11.099Z,6.23
2023-02-24T05:58:40.469Z,6.22
2023-02-24T06:01:16.448Z,6.18
2023-02-24T06:03:48.153Z,6.23
2023-02-24T06:06:16.263Z,6.31
2023-02-24T06:08:50.102Z,6.20
2023-02-24T06:11:19.359Z,6.17
2023-02-24T06:13:49.443Z,6.19
2023-02-24T06:16:18.387Z,6.13
2023-02-24T06:18:49.996Z,6.14
2023-02-24T06:21:17.139Z,6.14
2023-02-24T06:23:45.065Z,6.07
2023-02-24T06:26:19.345Z,6.16
2023-02-24T06:28:48.116Z,6.14
2023-02-24T06:31:15.199Z,6.13
2023-02-24T06:33:42.146Z,6.00
2023-02-24T06:36:08.872Z,6.02
2023-02-24T06:38:36.922Z,6.08
2023-02-24T06:41:10.974Z,5.83
2023-02-24T06:43:46.211Z,5.82
2023-02-24T06:46:15.519Z,5.88
2023-02-24T06:48:42.796Z,5.94
2023-02-24T06:51:15.691Z,5.99
2023-02-24T06:53:45.781Z,6.00
2023-02-24T06:56:19.835Z,5.93
2023-02-24T06:58:52.274Z,5.84
2023-02-24T07:01:22.139Z,5.88
2023-02-24T07:04:07.637Z,5.92
2023-02-24T07:06:38.362Z,5.89
2023-02-24T07:09:08.909Z,5.93
2023-02-24T07:11:37.482Z,6.03
2023-02-24T07:14:07.919Z,5.91
2023-02-24T07:16:35.532Z,5.84
2023-02-24T07:19:04.983Z,5.87
2023-02-24T07:21:39.642Z,6.02
2023-02-24T07:24:08.570Z,5.95
2023-02-24T07:26:35.287Z,6.00
2023-02-24T07:29:06.537Z,6.03
2023-02-24T07:31:34.593Z,5.98
2023-02-24T07:34:02.295Z,5.93
2023-02-24T07:36:30.560Z,5.81
2023-02-24T07:38:58.893Z,5.85
2023-02-24T07:41:26.701Z,5.69
2023-02-24T07:43:54.799Z,5.68
2023-02-24T07:46:24.697Z,5.76
2023-02-24T07:48:52.791Z,5.83
2023-02-24T07:51:23.576Z,5.74
2023-02-24T07:53:53.125Z,5.61
2023-02-24T07:56:27.067Z,5.69
2023-02-24T07:59:08.132Z,5.68
2023-02-24T08:01:40.365Z,5.84
2023-02-24T08:04:09.331Z,5.72
2023-02-24T08:06:39.335Z,5.74
2023-02-24T08:09:18.698Z,5.80
2023-02-24T08:11:54.688Z,5.84
2023-02-24T08:14:24.388Z,5.80
2023-02-24T08:16:59.514Z,5.66
2023-02-24T08:19:39.583Z,5.88
2023-02-24T08:22:24.204Z,5.90
2023-02-24T08:24:56.698Z,5.88
2023-02-24T08:27:25.285Z,5.85
2023-02-24T08:30:01.638Z,5.84
2023-02-24T08:32:46.890Z,5.75
2023-02-24T08:35:18.801Z,5.80
2023-02-24T08:37:48.070Z,5.89
2023-02-24T08:40:31.647Z,5.87
2023-02-24T08:43:35.320Z,6.06
2023-02-24T08:46:13.994Z,6.12
2023-02-24T08:48:43.301Z,6.19
2023-02-24T08:51:28.677Z,6.36
2023-02-24T08:54:15.670Z,6.50
2023-02-24T08:56:49.317Z,6.41
2023-02-24T08:59:38.571Z,6.60
2023-02-24T09:02:18.666Z,6.63
2023-02-24T09:04:47.145Z,6.78
2023-02-24T09:07:23.689Z,6.71
2023-02-24T09:09:56.351Z,6.72
2023-02-24T09:12:29.186Z,6.70
2023-02-24T09:15:08.711Z,6.76
2023-02-24T09:17:49.982Z,6.79
2023-02-24T09:20:38.841Z,6.70
2023-02-24T09:23:08.965Z,6.82
2023-02-24T09:25:41.379Z,6.76
2023-02-24T09:28:10.074Z,6.95
2023-02-24T09:30:51.577Z,6.98
2023-02-24T09:33:28.557Z,7.14
2023-02-24T09:36:10.790Z,7.22
2023-02-24T09:38:58.837Z,7.47
2023-02-24T09:41:55.808Z,7.64
2023-02-24T09:44:39.949Z,7.68
2023-02-24T09:47:19.048Z,7.66
2023-02-24T09:50:04.561Z,7.50
2023-02-24T09:52:41.667Z,7.83
2023-02-24T09:55:25.249Z,7.98
2023-02-24T09:58:18.611Z,7.66
2023-02-24T10:01:21.074Z,7.82
2023-02-24T10:04:06.241Z,7.81
2023-02-24T10:06:42.763Z,7.78
2023-02-24T10:09:26.992Z,7.68
2023-02-24T10:12:04.742Z,7.65
2023-02-24T10:14:44.649Z,7.45
2023-02-24T10:17:24.104Z,7.32
2023-02-24T10:20:00.141Z,7.36
2023-02-24T10:22:50.850Z,7.47
2023-02-24T10:25:36.498Z,7.42
2023-02-24T10:28:36.346Z,7.13
2023-02-24T10:31:30.000Z,7.18
2023-02-24T10:34:06.411Z,6.99
2023-02-24T10:36:37.888Z,7.01
2023-02-24T10:39:20.503Z,7.07
2023-02-24T10:41:58.840Z,6.97
2023-02-24T10:44:36.446Z,7.20
2023-02-24T10:47:17.897Z,7.28
2023-02-24T10:49:58.883Z,7.15
2023-02-24T10:52:50.642Z,7.02
2023-02-24T10:55:47.452Z,6.89
2023-02-24T10:58:28.167Z,7.08
2023-02-24T11:01:12.009Z,7.14
2023-02-24T11:04:01.530Z,6.99
2023-02-24T11:06:41.314Z,7.08
2023-02-24T11:09:32.335Z,7.13
2023-02-24T11:12:25.732Z,7.16
2023-02-24T11:15:14.317Z,7.19
2023-02-24T11:17:57.007Z,7.15
2023-02-24T11:20:49.488Z,7.06
2023-02-24T11:23:22.216Z,7.25
2023-02-24T11:25:58.357Z,7.51
2023-02-24T11:28:41.556Z,7.36
2023-02-24T11:31:28.052Z,7.47
2023-02-24T11:34:09.478Z,7.39
2023-02-24T11:36:45.085Z,7.45
2023-02-24T11:39:43.777Z,7.58
2023-02-24T11:42:15.839Z,7.53
2023-02-24T11:45:03.015Z,7.53
2023-02-24T11:47:37.248Z,7.58
2023-02-24T11:50:17.994Z,7.60
2023-02-24T11:52:47.343Z,7.54
2023-02-24T11:55:42.643Z,7.62
2023-02-24T11:58:35.693Z,7.39
2023-02-24T12:01:17.218Z,7.56
2023-02-24T12:03:54.453Z,7.67
2023-02-24T12:06:28.850Z,7.99
2023-02-24T12:09:03.288Z,8.10
2023-02-24T12:11:39.287Z,8.13
2023-02-24T12:14:20.080Z,7.93
2023-02-24T12:16:53.385Z,8.09
2023-02-24T12:19:29.638Z,8.07
2023-02-24T12:22:05.648Z,8.08
2023-02-24T12:24:32.500Z,8.08
2023-02-24T12:27:09.329Z,8.18
2023-02-24T12:30:06.749Z,8.10
2023-02-24T12:32:48.506Z,7.97
2023-02-24T12:35:19.926Z,8.00
2023-02-24T12:38:11.488Z,8.08
2023-02-24T12:40:47.984Z,8.10
2023-02-24T12:43:49.823Z,8.07
2023-02-24T12:46:33.749Z,8.19
2023-02-24T12:49:34.083Z,8.08
2023-02-24T12:52:36.890Z,8.09
2023-02-24T12:55:30.048Z,8.09
2023-02-24T12:58:21.181Z,8.06
2023-02-24T13:01:00.003Z,7.99
2023-02-24T13:03:26.669Z,8.02
2023-02-24T13:06:13.346Z,8.03
2023-02-24T13:08:59.066Z,7.98
2023-02-24T13:11:37.237Z,7.92
2023-02-24T13:14:13.310Z,7.93
2023-02-24T13:16:40.082Z,7.84
2023-02-24T13:19:28.412Z,7.87
2023-02-24T13:21:58.440Z,7.82
2023-02-24T13:24:26.367Z,7.84
2023-02-24T13:27:03.787Z,7.87
2023-02-24T13:29:30.508Z,7.63
2023-02-24T13:31:57.769Z,7.64
2023-02-24T13:34:45.062Z,7.63
2023-02-24T13:37:11.751Z,7.52
2023-02-24T13:39:44.444Z,7.56
2023-02-24T13:42:20.349Z,7.60
2023-02-24T13:45:03.208Z,7.59
2023-02-24T13:47:32.925Z,7.54
2023-02-24T13:50:20.178Z,7.49
2023-02-24T13:52:46.805Z,7.40
2023-02-24T13:55:30.951Z,7.47
2023-02-24T13:58:00.608Z,7.53
2023-02-24T14:00:59.952Z,7.38
2023-02-24T14:03:28.790Z,7.40
2023-02-24T14:05:55.686Z,7.46
2023-02-24T14:08:35.630Z,7.38
2023-02-24T14:11:06.710Z,7.14
2023-02-24T14:13:34.428Z,7.19
2023-02-24T14:16:04.874Z,7.13
2023-02-24T14:18:31.526Z,7.05
2023-02-24T14:20:58.456Z,7.09
2023-02-24T14:23:27.589Z,6.91
2023-02-24T14:26:13.973Z,6.80
2023-02-24T14:28:42.023Z,6.86
2023-02-24T14:31:13.078Z,6.89
2023-02-24T14:33:42.039Z,6.86
2023-02-24T14:36:21.022Z,6.77
2023-02-24T14:39:01.040Z,6.62
2023-02-24T14:41:27.878Z,6.51
2023-02-24T14:43:55.412Z,6.48
2023-02-24T14:46:23.965Z,6.28
2023-02-24T14:48:56.284Z,6.25
2023-02-24T14:51:28.016Z,6.33
2023-02-24T14:53:59.339Z,6.24
2023-02-24T14:56:32.662Z,6.22
2023-02-24T14:59:17.125Z,6.17
2023-02-24T15:01:50.850Z,6.08
2023-02-24T15:04:26.282Z,6.02
2023-02-24T15:06:53.206Z,5.89
2023-02-24T15:09:23.853Z,5.68
2023-02-24T15:11:53.430Z,5.88
2023-02-24T15:14:24.202Z,5.60
2023-02-24T15:16:56.003Z,5.84
2023-02-24T15:19:37.197Z,5.74
2023-02-24T15:22:17.618Z,5.76
2023-02-24T15:24:44.338Z,5.53
2023-02-24T15:27:13.978Z,5.46
2023-02-24T15:29:43.055Z,5.32
2023-02-24T15:32:21.171Z,5.37
2023-02-24T15:34:48.258Z,5.35
2023-02-24T15:37:23.930Z,5.17
2023-02-24T15:39:52.395Z,5.31
2023-02-24T15:42:28.752Z,5.22
2023-02-24T15:44:58.435Z,5.23
2023-02-24T15:47:32.849Z,5.30
2023-02-24T15:49:59.725Z,5.23
2023-02-24T15:52:28.940Z,5.31
2023-02-24T15:54:58.124Z,5.23
2023-02-24T15:57:25.716Z,5.14
2023-02-24T15:59:52.741Z,5.01
2023-02-24T16:02:21.502Z,5.04
2023-02-24T16:04:49.783Z,5.14
2023-02-24T16:07:21.270Z,5.15
2023-02-24T16:09:50.729Z,5.13
2023-02-24T16:12:22.001Z,5.06
2023-02-24T16:14:56.078Z,4.94
2023-02-24T16:17:35.658Z,5.00
2023-02-24T16:20:08.604Z,5.09
2023-02-24T16:22:35.870Z,5.04
2023-02-24T16:25:03.734Z,5.02
2023-02-24T16:27:30.828Z,4.95
2023-02-24T16:29:58.735Z,4.76
2023-02-24T16:32:27.302Z,4.87
2023-02-24T16:34:54.184Z,4.78
2023-02-24T16:37:23.896Z,4.86
2023-02-24T16:39:50.917Z,4.83
2023-02-24T16:42:18.937Z,4.97
2023-02-24T16:44:50.116Z,4.90
2023-02-24T16:47:23.845Z,4.73
2023-02-24T16:49:51.568Z,4.80
2023-02-24T16:52:19.564Z,4.74
2023-02-24T16:54:47.784Z,4.77
2023-02-24T16:57:14.684Z,4.55
2023-02-24T16:59:41.442Z,4.63
2023-02-24T17:02:18.917Z,4.77
2023-02-24T17:04:45.687Z,4.87
2023-02-24T17:07:12.384Z,4.88
2023-02-24T17:09:39.056Z,4.69
2023-02-24T17:12:05.892Z,4.76
2023-02-24T17:14:32.597Z,4.84
2023-02-24T17:17:02.072Z,4.73
2023-02-24T17:19:28.901Z,4.74
2023-02-24T17:21:55.737Z,4.73
2023-02-24T17:24:22.700Z,4.80
2023-02-24T17:26:49.393Z,4.81
2023-02-24T17:29:16.266Z,4.64
2023-02-24T17:31:43.191Z,4.73
2023-02-24T17:34:10.198Z,4.76
2023-02-24T17:36:36.839Z,4.61
2023-02-24T17:39:03.696Z,4.75
2023-02-24T17:41:30.513Z,4.60
2023-02-24T17:43:57.271Z,4.61
2023-02-24T17:46:24.403Z,4.60
2023-02-24T17:48:51.209Z,4.54
2023-02-24T17:51:20.027Z,4.49
2023-02-24T17:53:46.797Z,4.41
2023-02-24T17:56:13.671Z,4.52
2023-02-24T17:58:40.603Z,4.53
2023-02-24T18:01:07.722Z,4.65
2023-02-24T18:03:35.962Z,4.60
2023-02-24T18:06:12.871Z,4.69
2023-02-24T18:08:40.782Z,4.66
2023-02-24T18:11:09.942Z,4.70
2023-02-24T18:13:36.575Z,4.64
2023-02-24T18:16:08.731Z,4.60
2023-02-24T18:18:35.606Z,4.65
2023-02-24T18:21:04.310Z,4.74
2023-02-24T18:23:31.910Z,4.80
2023-02-24T18:26:06.344Z,4.67
2023-02-24T18:28:33.778Z,4.70
2023-02-24T18:31:01.282Z,4.84
2023-02-24T18:33:28.124Z,4.79
2023-02-24T18:36:01.810Z,4.68
2023-02-24T18:38:29.493Z,4.76
2023-02-24T18:41:09.820Z,4.80
2023-02-24T18:43:37.306Z,4.86
2023-02-24T18:46:08.424Z,4.76
2023-02-24T18:48:35.321Z,4.78
2023-02-24T18:51:02.285Z,4.81
2023-02-24T18:53:34.277Z,4.81
2023-02-24T18:56:03.065Z,4.80
2023-02-24T18:58:30.270Z,4.83
2023-02-24T19:00:57.139Z,4.87
2023-02-24T19:03:24.633Z,4.85
2023-02-24T19:05:51.385Z,4.87
2023-02-24T19:08:18.284Z,4.93
2023-02-24T19:10:45.098Z,4.91
2023-02-24T19:13:12.523Z,4.92
2023-02-24T19:15:39.651Z,4.97
2023-02-24T19:18:06.499Z,4.86
2023-02-24T19:20:33.156Z,4.90
2023-02-24T19:23:01.382Z,4.95
2023-02-24T19:25:28.122Z,4.90
2023-02-24T19:27:54.954Z,4.88
2023-02-24T19:30:21.896Z,4.81
2023-02-24T19:32:49.620Z,4.88
2023-02-24T19:35:16.577Z,4.83
2023-02-24T19:37:43.350Z,4.71
2023-02-24T19:40:10.777Z,4.71
2023-02-24T19:42:37.546Z,4.80
2023-02-24T19:45:05.088Z,4.71
2023-02-24T19:47:31.702Z,4.70
2023-02-24T19:49:58.422Z,4.65
2023-02-24T19:52:25.094Z,4.63
2023-02-24T19:54:51.881Z,4.63
2023-02-24T19:57:18.534Z,4.59
2023-02-24T19:59:45.274Z,4.60
2023-02-24T20:02:11.881Z,4.64
2023-02-24T20:04:38.595Z,4.62
2023-02-24T20:07:05.289Z,4.70
2023-02-24T20:09:32.859Z,4.65
2023-02-24T20:12:01.928Z,4.80
2023-02-24T20:14:29.650Z,4.79
2023-02-24T20:16:56.353Z,4.67
2023-02-24T20:19:23.253Z,4.81
2023-02-24T20:21:50.090Z,4.67
2023-02-24T20:24:17.886Z,4.68
2023-02-24T20:26:47.342Z,4.71
2023-02-24T20:29:15.539Z,4.67
2023-02-24T20:31:42.518Z,4.59
2023-02-24T20:34:10.727Z,4.61
2023-02-24T20:36:37.792Z,4.54
2023-02-24T20:39:08.078Z,4.62
2023-02-24T20:41:34.936Z,4.66
2023-02-24T20:44:01.631Z,4.65
2023-02-24T20:46:30.726Z,4.65
2023-02-24T20:49:00.633Z,4.61
2023-02-24T20:51:28.220Z,4.58
2023-02-24T20:53:58.366Z,4.53
2023-02-24T20:56:27.964Z,4.54
2023-02-24T20:59:01.072Z,4.71
2023-02-24T21:01:29.388Z,4.46
2023-02-24T21:03:56.519Z,4.49
2023-02-24T21:06:24.286Z,4.44
2023-02-24T21:08:53.297Z,4.39
2023-02-24T21:11:20.174Z,4.42
2023-02-24T21:13:48.848Z,4.47
2023-02-24T21:16:17.351Z,4.39
2023-02-24T21:18:45.836Z,4.37
2023-02-24T21:21:15.364Z,4.33
2023-02-24T21:23:43.179Z,4.28
2023-02-24T21:26:11.113Z,4.24
2023-02-24T21:28:37.866Z,4.20
2023-02-24T21:31:09.862Z,4.22
2023-02-24T21:33:37.049Z,4.24
2023-02-24T21:36:06.771Z,4.21
2023-02-24T21:38:34.475Z,4.22
2023-02-24T21:41:02.493Z,4.39
2023-02-24T21:43:29.604Z,4.30
2023-02-24T21:45:56.443Z,4.26
2023-02-24T21:48:23.119Z,4.33
2023-02-24T21:51:00.893Z,4.31
2023-02-24T21:53:27.746Z,4.37
2023-02-24T21:56:16.721Z,4.41
2023-02-24T21:58:46.443Z,4.25
2023-02-24T22:01:19.113Z,4.36
2023-02-24T22:03:46.359Z,4.26
2023-02-24T22:06:17.427Z,4.33
2023-02-24T22:08:45.724Z,4.22
2023-02-24T22:11:14.959Z,4.21
2023-02-24T22:13:43.517Z,4.30
2023-02-24T22:16:13.190Z,4.24
2023-02-24T22:18:40.032Z,4.20
2023-02-24T22:21:11.868Z,4.29
2023-02-24T22:23:38.979Z,4.11
2023-02-24T22:26:07.688Z,4.20
2023-02-24T22:28:36.018Z,4.19
2023-02-24T22:31:03.090Z,4.10
2023-02-24T22:33:33.486Z,3.65
2023-02-24T22:36:08.826Z,3.48
2023-02-24T22:38:36.972Z,3.31
2023-02-24T22:41:07.201Z,3.68
2023-02-24T22:43:34.450Z,3.58
2023-02-24T22:46:04.377Z,3.76
2023-02-24T22:48:32.629Z,3.74
2023-02-24T22:51:01.425Z,3.68
2023-02-24T22:53:30.461Z,3.73
2023-02-24T22:55:57.637Z,3.64
2023-02-24T22:58:25.106Z,3.67
2023-02-24T23:00:53.781Z,3.70
2023-02-24T23:03:24.880Z,3.66
2023-02-24T23:06:19.364Z,3.69
2023-02-24T23:08:47.710Z,3.71
2023-02-24T23:11:21.116Z,3.78
2023-02-24T23:13:49.936Z,3.76
2023-02-24T23:16:22.109Z,3.75
2023-02-24T23:18:50.936Z,3.71
2023-02-24T23:21:25.002Z,3.72
2023-02-24T23:23:57.027Z,3.77
2023-02-24T23:26:32.473Z,3.71
2023-02-24T23:28:59.703Z,3.78
2023-02-24T23:31:27.194Z,3.79
2023-02-24T23:33:55.057Z,3.81
2023-02-24T23:36:23.391Z,3.81
2023-02-24T23:38:50.574Z,3.81
2023-02-24T23:41:17.706Z,3.89
2023-02-24T23:43:44.403Z,3.95
2023-02-24T23:46:12.990Z,3.90
2023-02-24T23:48:39.984Z,3.85
2023-02-24T23:51:09.046Z,3.83
2023-02-24T23:53:40.340Z,3.80
2023-02-24T23:56:15.905Z,3.82
2023-02-24T23:58:42.895Z,3.82
